Time;durP1;ratioP1;P1;durP2;ratioP2;P2;SDS_P1;SDS_P2;PMS_P1;PMS_P2;Temp;Humidity;BMP_temperature;BMP_pressure;BME280_temperature;BME280_humidity;BME280_pressure;Samples;Min_cycle;Max_cycle;Signal;HPM_P1;HPM_P2
2022/05/09 00:01:04;;;;;;;7.97;2.70;;;;;;;;;;5036942;28;20691;-72
2022/05/09 00:03:31;;;;;;;5.57;2.60;;;;;;;;;;5028982;28;20594;-69
2022/05/09 00:05:56;;;;;;;8.90;2.60;;;;;;;;;;5030306;28;20175;-70
2022/05/09 00:08:21;;;;;;;9.27;3.07;;;;;;;;;;5026808;28;20193;-72
2022/05/09 00:10:46;;;;;;;6.80;2.70;;;;;;;;;;5032679;28;20288;-71
2022/05/09 00:13:12;;;;;;;9.47;2.90;;;;;;;;;;5030066;28;20182;-71
2022/05/09 00:15:37;;;;;;;6.20;2.23;;;;;;;;;;5033288;28;20566;-71
2022/05/09 00:18:02;;;;;;;6.47;2.67;;;;;;;;;;5030539;28;20234;-70
2022/05/09 00:20:27;;;;;;;10.50;3.63;;;;;;;;;;5036428;28;20229;-71
2022/05/09 00:22:54;;;;;;;5.03;2.60;;;;;;;;;;5029468;28;20179;-71
2022/05/09 00:25:20;;;;;;;9.67;2.90;;;;;;;;;;5034578;28;20181;-69
2022/05/09 00:27:46;;;;;;;8.83;2.80;;;;;;;;;;5034542;28;20630;-69
2022/05/09 00:30:11;;;;;;;8.10;3.00;;;;;;;;;;5033065;28;20177;-71
2022/05/09 00:32:37;;;;;;;4.83;2.40;;;;;;;;;;5031657;28;20202;-69
2022/05/09 00:35:02;;;;;;;7.43;3.33;;;;;;;;;;5024787;28;20654;-68
2022/05/09 00:37:27;;;;;;;8.20;2.87;;;;;;;;;;5027950;28;20191;-68
2022/05/09 00:39:52;;;;;;;11.30;2.87;;;;;;;;;;5032370;28;20192;-70
2022/05/09 00:42:18;;;;;;;6.33;2.70;;;;;;;;;;5034690;28;20272;-70
2022/05/09 00:44:43;;;;;;;9.80;3.00;;;;;;;;;;5036079;28;20183;-70
2022/05/09 00:47:08;;;;;;;9.25;3.58;;;;;;;;;;5030278;28;20189;-70
2022/05/09 00:49:40;;;;;;;10.77;3.20;;;;;;;;;;5026923;28;20209;-69
2022/05/09 00:52:08;;;;;;;7.03;3.00;;;;;;;;;;5032728;28;20222;-69
2022/05/09 00:54:37;;;;;;;6.63;2.70;;;;;;;;;;5032244;28;20530;-70
2022/05/09 00:57:07;;;;;;;10.17;3.27;;;;;;;;;;5033127;28;20178;-69
2022/05/09 00:59:33;;;;;;;8.10;2.53;;;;;;;;;;5027952;28;20269;-70
2022/05/09 01:01:59;;;;;;;6.70;2.47;;;;;;;;;;5021676;28;20209;-71
2022/05/09 01:04:26;;;;;;;11.40;3.63;;;;;;;;;;5029558;28;20171;-70
2022/05/09 01:06:52;;;;;;;8.33;3.57;;;;;;;;;;5032174;28;20725;-71
2022/05/09 01:09:17;;;;;;;7.60;2.90;;;;;;;;;;5029815;28;20716;-70
2022/05/09 01:11:44;;;;;;;10.63;3.30;;;;;;;;;;5030631;28;20288;-70
2022/05/09 01:14:13;;;;;;;9.20;2.60;;;;;;;;;;5032001;28;20174;-72
2022/05/09 01:16:39;;;;;;;7.93;3.03;;;;;;;;;;5032881;28;20166;-68
2022/05/09 01:19:08;;;;;;;9.43;3.60;;;;;;;;;;5025989;28;20248;-69
2022/05/09 01:21:38;;;;;;;8.20;3.60;;;;;;;;;;5027781;28;20210;-69
2022/05/09 01:24:05;;;;;;;11.60;3.20;;;;;;;;;;5029558;28;20205;-70
2022/05/09 01:26:30;;;;;;;22.13;4.20;;;;;;;;;;5032071;28;20198;-70
2022/05/09 01:28:58;;;;;;;7.93;2.83;;;;;;;;;;5028153;28;20253;-70
2022/05/09 01:31:25;;;;;;;6.03;3.07;;;;;;;;;;5034702;28;20663;-71
2022/05/09 01:33:52;;;;;;;9.50;3.73;;;;;;;;;;5028660;28;20178;-68
2022/05/09 01:36:19;;;;;;;11.40;3.47;;;;;;;;;;5032093;28;20659;-71
2022/05/09 01:38:56;;;;;;;9.47;3.00;;;;;;;;;;5031520;28;20187;-68
2022/05/09 01:41:22;;;;;;;8.23;2.97;;;;;;;;;;5033583;28;20580;-68
2022/05/09 01:43:48;;;;;;;12.77;2.83;;;;;;;;;;5033709;28;20183;-69
2022/05/09 01:46:18;;;;;;;9.37;4.60;;;;;;;;;;5037700;28;20240;-72
2022/05/09 01:51:27;;;;;;;6.20;3.30;;;;;;;;;;5024789;28;20275;-71
2022/05/09 01:53:53;;;;;;;11.27;3.43;;;;;;;;;;5030295;28;20190;-71
2022/05/09 01:56:19;;;;;;;9.60;3.30;;;;;;;;;;5031712;28;20205;-71
2022/05/09 01:58:44;;;;;;;9.43;3.83;;;;;;;;;;5028150;28;20261;-70
2022/05/09 02:01:09;;;;;;;13.73;4.10;;;;;;;;;;5031834;28;20297;-71
2022/05/09 02:03:35;;;;;;;7.27;2.87;;;;;;;;;;5020707;28;20186;-68
2022/05/09 02:06:01;;;;;;;6.43;3.13;;;;;;;;;;5030162;28;20197;-71
2022/05/09 02:08:26;;;;;;;7.27;3.77;;;;;;;;;;5030325;28;20221;-69
2022/05/09 02:10:51;;;;;;;9.30;3.07;;;;;;;;;;5029662;28;20853;-69
2022/05/09 02:13:16;;;;;;;8.00;2.97;;;;;;;;;;5025402;28;20194;-68
2022/05/09 02:15:42;;;;;;;7.93;2.63;;;;;;;;;;5030848;28;20194;-71
2022/05/09 02:18:07;;;;;;;10.43;3.63;;;;;;;;;;5027467;28;20281;-71
2022/05/09 02:20:32;;;;;;;11.40;4.07;;;;;;;;;;5030280;28;20218;-70
2022/05/09 02:22:57;;;;;;;12.53;3.63;;;;;;;;;;5030898;28;20186;-71
2022/05/09 02:25:33;;;;;;;7.80;3.67;;;;;;;;;;5034486;28;20269;-71
2022/05/09 02:27:59;;;;;;;7.27;3.60;;;;;;;;;;5028650;28;20198;-69
2022/05/09 02:30:25;;;;;;;8.80;3.20;;;;;;;;;;5031860;28;20177;-71
2022/05/09 02:32:50;;;;;;;9.63;3.93;;;;;;;;;;5032421;28;20179;-71
2022/05/09 02:35:15;;;;;;;5.70;3.57;;;;;;;;;;5030867;28;20252;-71
2022/05/09 02:37:41;;;;;;;9.77;3.93;;;;;;;;;;5030931;28;20169;-69
2022/05/09 02:40:06;;;;;;;12.50;3.77;;;;;;;;;;5032912;28;20196;-71
2022/05/09 02:42:32;;;;;;;13.27;3.60;;;;;;;;;;5032911;28;20215;-71
2022/05/09 02:44:57;;;;;;;10.07;3.63;;;;;;;;;;5032936;28;20178;-71
2022/05/09 02:47:22;;;;;;;9.83;3.97;;;;;;;;;;5033157;28;20179;-71
2022/05/09 02:49:47;;;;;;;10.73;3.90;;;;;;;;;;5034179;28;20169;-71
2022/05/09 02:52:13;;;;;;;6.67;3.63;;;;;;;;;;5032429;28;20582;-71
2022/05/09 02:54:38;;;;;;;9.37;3.53;;;;;;;;;;5034437;28;20658;-69
2022/05/09 02:57:03;;;;;;;13.23;3.30;;;;;;;;;;5031557;28;20182;-71
2022/05/09 02:59:28;;;;;;;6.37;3.40;;;;;;;;;;5031163;28;20181;-71
2022/05/09 03:01:53;;;;;;;7.93;3.87;;;;;;;;;;5036835;28;20220;-71
2022/05/09 03:07:03;;;;;;;4.90;3.00;;;;;;;;;;5032558;28;20181;-71
2022/05/09 03:09:30;;;;;;;9.13;3.60;;;;;;;;;;5034633;28;20190;-71
2022/05/09 03:11:56;;;;;;;7.10;3.80;;;;;;;;;;5033457;28;20207;-71
2022/05/09 03:14:21;;;;;;;5.37;3.50;;;;;;;;;;5030470;28;20178;-71
2022/05/09 03:16:46;;;;;;;9.93;4.23;;;;;;;;;;5034617;28;20186;-70
2022/05/09 03:19:11;;;;;;;6.73;3.63;;;;;;;;;;5037495;28;20175;-71
2022/05/09 03:21:37;;;;;;;15.40;3.80;;;;;;;;;;5040738;28;20260;-69
2022/05/09 03:24:03;;;;;;;10.37;4.43;;;;;;;;;;5036074;28;20659;-69
2022/05/09 03:26:28;;;;;;;9.87;3.80;;;;;;;;;;5034486;28;20181;-69
2022/05/09 03:28:54;;;;;;;10.00;4.03;;;;;;;;;;5030337;28;20193;-69
2022/05/09 03:31:19;;;;;;;12.63;3.93;;;;;;;;;;5037342;28;20198;-71
2022/05/09 03:33:45;;;;;;;13.27;4.03;;;;;;;;;;5033036;28;20174;-69
2022/05/09 03:36:10;;;;;;;13.23;4.23;;;;;;;;;;5028070;28;20193;-70
2022/05/09 03:38:37;;;;;;;11.17;5.07;;;;;;;;;;5034383;28;20182;-70
2022/05/09 03:41:02;;;;;;;9.67;4.20;;;;;;;;;;5033945;28;20742;-70
2022/05/09 03:43:27;;;;;;;10.00;3.70;;;;;;;;;;5032690;28;20236;-71
2022/05/09 03:45:53;;;;;;;11.93;4.83;;;;;;;;;;5034979;28;20618;-71
2022/05/09 03:48:18;;;;;;;9.63;4.00;;;;;;;;;;5030464;28;20178;-71
2022/05/09 03:50:43;;;;;;;7.83;3.67;;;;;;;;;;5036626;28;20252;-71
2022/05/09 03:53:09;;;;;;;7.40;3.67;;;;;;;;;;5031887;28;20659;-69
2022/05/09 03:55:34;;;;;;;10.90;4.30;;;;;;;;;;5032730;28;20208;-70
2022/05/09 03:57:59;;;;;;;11.10;4.33;;;;;;;;;;5029274;28;20569;-70
2022/05/09 04:00:27;;;;;;;12.97;4.50;;;;;;;;;;5027866;28;20174;-70
2022/05/09 04:02:52;;;;;;;8.83;3.87;;;;;;;;;;5031053;28;20178;-70
2022/05/09 04:05:17;;;;;;;7.83;4.00;;;;;;;;;;5030700;28;20190;-70
2022/05/09 04:07:46;;;;;;;11.80;4.43;;;;;;;;;;5029255;28;20664;-70
2022/05/09 04:10:13;;;;;;;10.80;4.47;;;;;;;;;;5025093;28;20197;-71
2022/05/09 04:12:39;;;;;;;14.23;5.47;;;;;;;;;;5030700;28;20309;-71
2022/05/09 04:17:49;;;;;;;16.67;5.13;;;;;;;;;;5033135;28;20184;-71
2022/05/09 04:20:14;;;;;;;10.80;5.43;;;;;;;;;;5031682;28;20285;-71
2022/05/09 04:22:40;;;;;;;15.53;4.53;;;;;;;;;;5030733;28;20189;-71
2022/05/09 04:25:05;;;;;;;11.63;4.37;;;;;;;;;;5030517;28;20299;-71
2022/05/09 04:27:32;;;;;;;9.90;5.20;;;;;;;;;;5031768;28;20181;-71
2022/05/09 04:29:58;;;;;;;13.90;4.70;;;;;;;;;;5034294;28;20182;-70
2022/05/09 04:32:24;;;;;;;16.03;5.07;;;;;;;;;;5030839;28;20198;-69
2022/05/09 04:34:49;;;;;;;12.43;5.03;;;;;;;;;;5024877;28;20655;-70
2022/05/09 04:37:14;;;;;;;11.70;4.97;;;;;;;;;;5034412;28;20187;-70
2022/05/09 04:39:39;;;;;;;7.07;5.03;;;;;;;;;;5025840;28;20192;-70
2022/05/09 04:42:04;;;;;;;11.93;5.13;;;;;;;;;;5033093;28;20220;-70
2022/05/09 04:44:30;;;;;;;12.17;4.83;;;;;;;;;;5037073;28;20186;-70
2022/05/09 04:46:55;;;;;;;10.90;4.80;;;;;;;;;;5032851;28;20162;-71
2022/05/09 04:49:20;;;;;;;19.67;6.30;;;;;;;;;;5033590;28;20655;-71
2022/05/09 04:51:45;;;;;;;10.23;5.07;;;;;;;;;;5032427;28;20206;-71
2022/05/09 04:54:10;;;;;;;8.60;5.00;;;;;;;;;;5031025;28;20667;-71
2022/05/09 04:56:36;;;;;;;10.20;5.00;;;;;;;;;;5032568;28;20229;-71
2022/05/09 04:59:01;;;;;;;8.73;4.23;;;;;;;;;;5033734;28;20281;-70
2022/05/09 05:01:26;;;;;;;14.80;5.47;;;;;;;;;;5031529;28;20281;-71
2022/05/09 05:03:51;;;;;;;13.43;4.63;;;;;;;;;;5034350;28;20177;-68
2022/05/09 05:06:16;;;;;;;13.30;4.50;;;;;;;;;;5032722;28;20205;-71
2022/05/09 05:08:42;;;;;;;9.90;4.70;;;;;;;;;;5027564;28;20288;-71
2022/05/09 05:11:07;;;;;;;13.47;5.20;;;;;;;;;;5024538;28;20860;-70
2022/05/09 05:13:33;;;;;;;10.73;3.90;;;;;;;;;;5030793;28;20190;-71
2022/05/09 05:15:58;;;;;;;7.50;4.30;;;;;;;;;;5030830;28;20775;-69
2022/05/09 05:18:26;;;;;;;7.43;4.37;;;;;;;;;;5028685;28;20185;-70
2022/05/09 05:20:51;;;;;;;9.90;4.87;;;;;;;;;;5031313;28;20206;-70
2022/05/09 05:23:16;;;;;;;10.73;4.13;;;;;;;;;;5030723;28;20548;-70
2022/05/09 05:25:44;;;;;;;12.20;4.73;;;;;;;;;;5031889;28;20186;-70
2022/05/09 05:28:10;;;;;;;11.57;4.30;;;;;;;;;;5027167;28;20213;-70
2022/05/09 05:30:35;;;;;;;11.47;4.57;;;;;;;;;;5032248;28;20248;-71
2022/05/09 05:33:01;;;;;;;11.47;4.13;;;;;;;;;;5027560;28;20191;-71
2022/05/09 05:35:26;;;;;;;11.17;3.60;;;;;;;;;;5029603;28;20186;-71
2022/05/09 05:37:52;;;;;;;10.53;5.07;;;;;;;;;;5031334;28;20192;-71
2022/05/09 05:40:17;;;;;;;10.47;4.17;;;;;;;;;;5028425;28;20618;-72
2022/05/09 05:42:43;;;;;;;11.63;4.30;;;;;;;;;;5031002;28;20189;-70
2022/05/09 05:45:09;;;;;;;13.90;4.60;;;;;;;;;;5028865;28;20233;-71
2022/05/09 05:47:34;;;;;;;13.83;4.33;;;;;;;;;;5030886;28;20237;-70
2022/05/09 05:50:00;;;;;;;11.30;3.97;;;;;;;;;;5031623;28;20204;-70
2022/05/09 05:52:25;;;;;;;6.67;3.80;;;;;;;;;;5031255;28;20297;-71
2022/05/09 05:54:50;;;;;;;17.93;5.00;;;;;;;;;;5032046;28;20217;-69
2022/05/09 05:57:28;;;;;;;11.67;4.33;;;;;;;;;;5028148;28;20189;-71
2022/05/09 05:59:54;;;;;;;12.73;4.63;;;;;;;;;;5030437;28;20261;-71
2022/05/09 06:02:20;;;;;;;8.73;3.97;;;;;;;;;;5029732;28;20217;-70
2022/05/09 06:04:46;;;;;;;9.33;3.43;;;;;;;;;;5031800;28;20170;-71
2022/05/09 06:07:12;;;;;;;10.80;4.43;;;;;;;;;;5022727;28;20174;-71
2022/05/09 06:09:38;;;;;;;11.00;3.97;;;;;;;;;;5016637;28;20186;-71
2022/05/09 06:12:03;;;;;;;8.90;4.23;;;;;;;;;;5029232;28;20608;-71
2022/05/09 06:14:28;;;;;;;11.10;3.97;;;;;;;;;;5031589;28;20658;-69
2022/05/09 06:16:54;;;;;;;12.20;4.63;;;;;;;;;;5029168;28;20186;-69
2022/05/09 06:19:19;;;;;;;7.70;3.90;;;;;;;;;;5027067;28;20257;-72
2022/05/09 06:21:44;;;;;;;10.73;3.87;;;;;;;;;;5031048;28;20202;-70
2022/05/09 06:24:09;;;;;;;8.40;3.97;;;;;;;;;;5031126;28;20709;-70
2022/05/09 06:26:35;;;;;;;14.23;3.90;;;;;;;;;;5031331;28;20178;-70
2022/05/09 06:29:00;;;;;;;7.30;4.00;;;;;;;;;;5026686;28;20232;-71
2022/05/09 06:31:26;;;;;;;8.50;4.38;;;;;;;;;;5031248;28;20198;-71
2022/05/09 06:33:51;;;;;;;8.30;4.97;;;;;;;;;;5029176;28;20654;-71
2022/05/09 06:36:16;;;;;;;8.73;3.35;;;;;;;;;;5030404;28;20184;-72
2022/05/09 06:38:41;;;;;;;8.68;3.92;;;;;;;;;;5030478;28;20174;-71
2022/05/09 06:41:10;;;;;;;10.98;4.28;;;;;;;;;;5031343;28;20259;-71
2022/05/09 06:43:36;;;;;;;9.70;4.05;;;;;;;;;;5029384;28;20182;-72
2022/05/09 06:46:01;;;;;;;11.27;5.15;;;;;;;;;;5030165;28;20689;-71
2022/05/09 06:48:26;;;;;;;11.80;3.92;;;;;;;;;;5030181;28;20297;-71
2022/05/09 06:50:52;;;;;;;6.70;3.83;;;;;;;;;;5030109;28;20613;-69
2022/05/09 06:53:17;;;;;;;13.47;4.37;;;;;;;;;;5029780;28;20206;-72
2022/05/09 06:55:42;;;;;;;7.57;3.97;;;;;;;;;;5021507;28;20583;-69
2022/05/09 06:58:09;;;;;;;23.95;4.50;;;;;;;;;;5026629;28;20175;-71
2022/05/09 07:00:34;;;;;;;8.00;3.60;;;;;;;;;;5033961;28;21587;-71
2022/05/09 07:03:00;;;;;;;18.77;5.45;;;;;;;;;;5031109;28;20177;-69
2022/05/09 07:05:25;;;;;;;15.32;4.25;;;;;;;;;;5029696;28;20186;-71
2022/05/09 07:07:50;;;;;;;8.48;4.10;;;;;;;;;;5027696;28;20244;-70
2022/05/09 07:10:16;;;;;;;10.23;4.28;;;;;;;;;;5025080;28;20174;-68
2022/05/09 07:12:45;;;;;;;12.52;3.88;;;;;;;;;;5027581;28;20183;-70
2022/05/09 07:15:11;;;;;;;16.17;5.13;;;;;;;;;;5023586;28;20516;-70
2022/05/09 07:17:36;;;;;;;8.00;3.90;;;;;;;;;;5026025;28;20178;-70
2022/05/09 07:20:02;;;;;;;14.57;5.47;;;;;;;;;;5025705;28;20190;-70
2022/05/09 07:22:27;;;;;;;11.27;4.35;;;;;;;;;;5030835;28;20463;-70
2022/05/09 07:24:52;;;;;;;11.43;4.23;;;;;;;;;;5029772;28;20171;-70
2022/05/09 07:27:17;;;;;;;8.53;3.90;;;;;;;;;;5024780;28;20411;-70
2022/05/09 07:29:42;;;;;;;9.67;4.27;;;;;;;;;;5022929;28;20545;-70
2022/05/09 07:32:08;;;;;;;11.27;3.90;;;;;;;;;;5030723;28;20446;-70
2022/05/09 07:34:33;;;;;;;13.10;4.40;;;;;;;;;;5030093;28;20186;-69
2022/05/09 07:36:58;;;;;;;12.85;4.80;;;;;;;;;;5028514;28;20398;-70
2022/05/09 07:39:23;;;;;;;12.20;4.47;;;;;;;;;;5030049;28;20202;-70
2022/05/09 07:41:48;;;;;;;9.57;4.15;;;;;;;;;;5030094;28;20467;-70
2022/05/09 07:44:14;;;;;;;13.93;4.35;;;;;;;;;;5029558;28;20180;-70
2022/05/09 07:46:39;;;;;;;11.80;4.23;;;;;;;;;;5032748;28;20265;-69
2022/05/09 07:49:04;;;;;;;17.00;4.57;;;;;;;;;;5032096;28;20406;-70
2022/05/09 07:51:29;;;;;;;9.80;4.30;;;;;;;;;;5034081;28;20527;-70
2022/05/09 07:53:55;;;;;;;9.70;3.70;;;;;;;;;;5032737;28;20428;-70
2022/05/09 07:56:20;;;;;;;10.85;3.80;;;;;;;;;;5034165;28;20187;-70
2022/05/09 07:58:45;;;;;;;8.93;4.05;;;;;;;;;;5032927;28;20213;-70
2022/05/09 08:01:10;;;;;;;7.83;4.10;;;;;;;;;;5032254;28;20210;-69
2022/05/09 08:03:37;;;;;;;8.53;3.33;;;;;;;;;;5031308;28;20443;-69
2022/05/09 08:06:03;;;;;;;12.70;3.83;;;;;;;;;;5034205;28;20777;-69
2022/05/09 08:08:29;;;;;;;10.82;3.95;;;;;;;;;;5032716;28;20198;-69
2022/05/09 08:10:55;;;;;;;8.50;3.42;;;;;;;;;;5029130;28;20249;-70
2022/05/09 08:13:20;;;;;;;10.13;4.20;;;;;;;;;;5029654;28;20270;-69
2022/05/09 08:15:46;;;;;;;10.80;3.65;;;;;;;;;;5033543;28;20182;-69
2022/05/09 08:18:12;;;;;;;5.90;3.63;;;;;;;;;;5031314;28;20182;-69
2022/05/09 08:20:38;;;;;;;10.25;4.20;;;;;;;;;;5031075;28;20544;-70
2022/05/09 08:23:04;;;;;;;9.13;3.92;;;;;;;;;;5032653;28;20220;-69
2022/05/09 08:25:30;;;;;;;9.70;3.60;;;;;;;;;;5023343;28;20178;-69
2022/05/09 08:27:55;;;;;;;7.45;3.40;;;;;;;;;;5031924;28;20253;-69
2022/05/09 08:30:20;;;;;;;9.60;4.05;;;;;;;;;;5033218;28;20281;-70
2022/05/09 08:32:46;;;;;;;5.82;3.47;;;;;;;;;;5029952;28;20183;-69
2022/05/09 08:35:13;;;;;;;11.73;4.00;;;;;;;;;;5031740;28;20175;-69
2022/05/09 08:37:38;;;;;;;10.88;4.63;;;;;;;;;;5032671;28;20574;-69
2022/05/09 08:40:04;;;;;;;14.77;6.13;;;;;;;;;;5033438;28;20257;-69
2022/05/09 08:43:08;;;;;;;8.65;3.63;;;;;;;;;;5033004;28;20240;-68
2022/05/09 08:45:35;;;;;;;7.72;3.97;;;;;;;;;;5027675;28;20174;-69
2022/05/09 08:48:03;;;;;;;10.45;3.65;;;;;;;;;;5029789;28;20174;-69
2022/05/09 08:50:46;;;;;;;6.00;3.92;;;;;;;;;;5026888;28;20197;-69
2022/05/09 08:53:15;;;;;;;8.52;3.45;;;;;;;;;;5032239;28;20185;-69
2022/05/09 08:55:41;;;;;;;10.10;3.70;;;;;;;;;;5030445;28;20166;-69
2022/05/09 08:58:09;;;;;;;11.30;3.60;;;;;;;;;;5032131;28;20170;-69
2022/05/09 09:00:36;;;;;;;8.30;3.80;;;;;;;;;;5032879;28;20199;-69
2022/05/09 09:03:22;;;;;;;8.68;3.90;;;;;;;;;;5026059;28;20174;-69
2022/05/09 09:05:50;;;;;;;11.50;4.18;;;;;;;;;;5031376;28;20181;-68
2022/05/09 09:08:23;;;;;;;9.15;4.38;;;;;;;;;;5030414;28;20194;-69
2022/05/09 09:10:54;;;;;;;8.80;4.00;;;;;;;;;;5032537;28;20209;-69
2022/05/09 09:13:25;;;;;;;9.23;4.10;;;;;;;;;;5032285;28;20193;-69
2022/05/09 09:15:58;;;;;;;9.60;3.97;;;;;;;;;;5032987;28;20189;-69
2022/05/09 09:18:24;;;;;;;8.80;3.88;;;;;;;;;;5030810;28;20189;-69
2022/05/09 09:20:49;;;;;;;9.48;3.55;;;;;;;;;;5030861;28;20213;-69
2022/05/09 09:23:33;;;;;;;8.38;3.85;;;;;;;;;;5032480;28;20206;-70
2022/05/09 09:26:03;;;;;;;9.10;3.95;;;;;;;;;;5030774;28;20254;-69
2022/05/09 09:28:29;;;;;;;7.03;3.10;;;;;;;;;;5031593;28;20190;-70
2022/05/09 09:30:54;;;;;;;6.03;2.28;;;;;;;;;;5029307;28;20202;-70
2022/05/09 09:33:20;;;;;;;8.45;3.00;;;;;;;;;;5031407;28;20174;-69
2022/05/09 09:36:05;;;;;;;5.40;2.03;;;;;;;;;;5032566;28;20182;-70
2022/05/09 09:38:46;;;;;;;7.25;2.40;;;;;;;;;;5028021;28;20209;-70
2022/05/09 09:41:21;;;;;;;5.60;2.35;;;;;;;;;;5030945;28;20232;-70
2022/05/09 09:43:48;;;;;;;6.25;2.38;;;;;;;;;;5030834;28;20223;-70
2022/05/09 09:46:13;;;;;;;11.60;3.80;;;;;;;;;;5032140;28;20249;-68
2022/05/09 09:48:39;;;;;;;7.22;2.60;;;;;;;;;;5031076;28;20254;-69
2022/05/09 09:51:10;;;;;;;10.38;3.00;;;;;;;;;;5032488;28;20198;-69
2022/05/09 09:53:35;;;;;;;7.00;3.30;;;;;;;;;;5030115;28;20174;-69
2022/05/09 09:56:11;;;;;;;6.50;3.63;;;;;;;;;;5032207;28;20186;-70
2022/05/09 09:58:38;;;;;;;7.63;3.53;;;;;;;;;;5029568;28;20417;-69
2022/05/09 10:01:08;;;;;;;7.18;2.95;;;;;;;;;;5024285;28;20206;-69
2022/05/09 10:03:34;;;;;;;12.32;3.55;;;;;;;;;;5031423;28;20686;-69
2022/05/09 10:05:59;;;;;;;6.60;3.20;;;;;;;;;;5029187;28;20265;-69
2022/05/09 10:08:28;;;;;;;6.10;3.63;;;;;;;;;;5030672;28;20516;-69
2022/05/09 10:11:01;;;;;;;5.38;2.42;;;;;;;;;;5030473;28;20199;-68
2022/05/09 10:13:33;;;;;;;8.85;3.50;;;;;;;;;;5028170;28;20194;-68
2022/05/09 10:16:08;;;;;;;8.13;2.90;;;;;;;;;;5030134;28;20312;-69
2022/05/09 10:18:33;;;;;;;6.75;3.75;;;;;;;;;;5028265;28;20184;-69
2022/05/09 10:21:00;;;;;;;7.53;3.33;;;;;;;;;;5031496;28;20198;-69
2022/05/09 10:26:14;;;;;;;5.60;2.60;;;;;;;;;;5026959;28;20682;-68
2022/05/09 10:28:45;;;;;;;5.93;3.28;;;;;;;;;;5030183;28;20213;-69
2022/05/09 10:31:17;;;;;;;6.93;2.35;;;;;;;;;;5024475;28;20713;-70
2022/05/09 10:33:45;;;;;;;5.85;2.50;;;;;;;;;;5025864;28;20189;-70
2022/05/09 10:36:16;;;;;;;6.53;2.67;;;;;;;;;;5029369;28;20584;-71
2022/05/09 10:38:44;;;;;;;6.97;2.83;;;;;;;;;;5027141;28;20189;-68
2022/05/09 10:41:13;;;;;;;6.05;2.50;;;;;;;;;;5027289;28;20229;-68
2022/05/09 10:43:38;;;;;;;5.10;2.00;;;;;;;;;;5031390;28;20639;-69
2022/05/09 10:46:07;;;;;;;6.97;2.47;;;;;;;;;;5031122;28;20181;-69
2022/05/09 10:48:36;;;;;;;6.15;2.42;;;;;;;;;;5030227;28;20198;-69
2022/05/09 10:51:04;;;;;;;4.72;2.50;;;;;;;;;;5027689;28;20671;-69
2022/05/09 10:53:29;;;;;;;6.57;2.50;;;;;;;;;;5030543;28;20232;-68
2022/05/09 10:55:57;;;;;;;6.68;2.30;;;;;;;;;;5031166;28;20174;-69
2022/05/09 10:58:25;;;;;;;4.03;2.33;;;;;;;;;;5030854;28;20193;-68
2022/05/09 11:00:58;;;;;;;5.13;2.72;;;;;;;;;;5029908;28;20221;-69
2022/05/09 11:03:34;;;;;;;3.90;2.50;;;;;;;;;;5031073;28;20205;-69
2022/05/09 11:06:12;;;;;;;7.78;2.78;;;;;;;;;;5031136;28;20170;-69
2022/05/09 11:08:47;;;;;;;7.55;3.10;;;;;;;;;;5028753;28;20203;-69
2022/05/09 11:11:25;;;;;;;5.38;2.13;;;;;;;;;;5031169;28;20548;-68
2022/05/09 11:13:55;;;;;;;5.30;2.50;;;;;;;;;;5030882;28;20184;-69
2022/05/09 11:16:38;;;;;;;7.20;2.60;;;;;;;;;;5031332;28;20557;-69
2022/05/09 11:19:14;;;;;;;4.57;2.45;;;;;;;;;;5022801;28;20261;-69
2022/05/09 11:22:14;;;;;;;5.47;2.40;;;;;;;;;;5032721;28;20219;-69
2022/05/09 11:24:52;;;;;;;5.25;2.15;;;;;;;;;;5011421;28;20185;-69
2022/05/09 11:27:26;;;;;;;7.97;2.42;;;;;;;;;;5029466;28;20178;-69
2022/05/09 11:29:57;;;;;;;6.32;2.33;;;;;;;;;;5032074;28;20174;-69
2022/05/09 11:32:41;;;;;;;5.45;2.63;;;;;;;;;;5026487;28;20572;-69
2022/05/09 11:35:12;;;;;;;5.55;2.63;;;;;;;;;;5033631;28;20174;-68
2022/05/09 11:37:46;;;;;;;7.88;3.30;;;;;;;;;;5031263;28;20547;-68
2022/05/09 11:40:21;;;;;;;5.32;3.00;;;;;;;;;;5034466;28;20180;-69
2022/05/09 11:45:47;;;;;;;5.03;2.45;;;;;;;;;;5026552;28;20194;-69
2022/05/09 11:48:21;;;;;;;6.30;3.05;;;;;;;;;;5033569;28;20174;-69
2022/05/09 11:51:01;;;;;;;5.13;2.72;;;;;;;;;;5034044;28;20198;-69
2022/05/09 11:53:28;;;;;;;6.00;3.08;;;;;;;;;;5029974;28;20166;-70
2022/05/09 11:55:53;;;;;;;7.78;3.05;;;;;;;;;;5032488;28;20163;-69
2022/05/09 11:58:19;;;;;;;6.30;2.80;;;;;;;;;;5032872;28;20608;-69
2022/05/09 12:00:47;;;;;;;5.85;2.90;;;;;;;;;;5033913;28;20228;-69
2022/05/09 12:03:16;;;;;;;5.70;3.22;;;;;;;;;;5033997;28;20174;-70
2022/05/09 12:05:48;;;;;;;4.95;3.30;;;;;;;;;;5033830;28;20242;-68
2022/05/09 12:08:13;;;;;;;5.90;2.95;;;;;;;;;;5032957;28;20578;-69
2022/05/09 12:10:39;;;;;;;7.23;2.80;;;;;;;;;;5033879;28;20198;-69
2022/05/09 12:13:11;;;;;;;9.50;3.50;;;;;;;;;;5033538;28;20178;-69
2022/05/09 12:15:36;;;;;;;7.65;3.70;;;;;;;;;;5033490;28;20167;-68
2022/05/09 12:18:07;;;;;;;5.22;2.70;;;;;;;;;;5033167;28;20178;-69
2022/05/09 12:20:34;;;;;;;5.90;3.17;;;;;;;;;;5034025;28;20186;-69
2022/05/09 12:23:00;;;;;;;5.88;2.58;;;;;;;;;;5032315;28;20185;-69
2022/05/09 12:25:41;;;;;;;5.10;2.53;;;;;;;;;;5033585;28;20175;-71
2022/05/09 12:28:15;;;;;;;5.63;2.92;;;;;;;;;;5030479;28;20492;-68
2022/05/09 12:30:59;;;;;;;8.75;3.08;;;;;;;;;;5030738;28;20434;-69
2022/05/09 12:33:30;;;;;;;6.40;3.40;;;;;;;;;;5029300;28;20166;-69
2022/05/09 12:35:57;;;;;;;4.32;3.17;;;;;;;;;;5033585;28;20613;-69
2022/05/09 12:38:24;;;;;;;5.38;3.72;;;;;;;;;;5028008;28;20182;-69
2022/05/09 12:40:56;;;;;;;6.80;3.17;;;;;;;;;;5027759;28;20751;-69
2022/05/09 12:43:21;;;;;;;4.88;3.53;;;;;;;;;;5028911;28;20196;-69
2022/05/09 12:45:46;;;;;;;4.90;3.10;;;;;;;;;;5033641;28;20711;-70
2022/05/09 12:48:12;;;;;;;6.97;3.13;;;;;;;;;;5031111;28;20912;-69
2022/05/09 12:50:43;;;;;;;3.80;2.13;;;;;;;;;;5028163;28;20454;-69
2022/05/09 12:53:09;;;;;;;4.95;2.70;;;;;;;;;;5032069;28;20178;-69
2022/05/09 12:55:52;;;;;;;5.22;2.25;;;;;;;;;;5033414;28;20217;-69
2022/05/09 12:58:36;;;;;;;4.47;2.70;;;;;;;;;;5026663;28;20189;-70
2022/05/09 13:01:11;;;;;;;5.60;3.00;;;;;;;;;;5031317;28;20814;-70
2022/05/09 13:03:46;;;;;;;5.20;2.97;;;;;;;;;;5033217;28;20292;-70
2022/05/09 13:06:13;;;;;;;4.03;2.53;;;;;;;;;;5032130;28;20679;-70
2022/05/09 13:08:38;;;;;;;5.15;3.10;;;;;;;;;;5032148;28;20194;-69
2022/05/09 13:11:06;;;;;;;3.80;2.90;;;;;;;;;;5031583;28;20259;-70
2022/05/09 13:13:33;;;;;;;5.35;2.60;;;;;;;;;;5032211;28;20179;-68
2022/05/09 13:15:59;;;;;;;6.45;3.80;;;;;;;;;;5032810;28;20209;-69
2022/05/09 13:18:25;;;;;;;8.75;3.10;;;;;;;;;;5032266;28;20198;-69
2022/05/09 13:20:57;;;;;;;6.78;3.08;;;;;;;;;;5032644;28;20763;-69
2022/05/09 13:23:31;;;;;;;4.22;2.63;;;;;;;;;;5031428;28;20674;-69
2022/05/09 13:26:02;;;;;;;12.38;3.63;;;;;;;;;;5032394;28;20181;-69
2022/05/09 13:28:29;;;;;;;7.70;3.90;;;;;;;;;;5027075;28;20182;-68
2022/05/09 13:30:55;;;;;;;7.70;4.35;;;;;;;;;;5032227;28;20699;-68
2022/05/09 13:33:25;;;;;;;7.75;3.80;;;;;;;;;;5032100;28;20170;-69
2022/05/09 13:35:51;;;;;;;6.90;3.78;;;;;;;;;;5031925;28;20604;-70
2022/05/09 13:38:21;;;;;;;6.82;3.80;;;;;;;;;;5031753;28;20244;-69
2022/05/09 13:40:47;;;;;;;6.95;3.67;;;;;;;;;;5027698;28;20202;-69
2022/05/09 13:43:15;;;;;;;5.80;3.30;;;;;;;;;;5030861;28;20408;-69
2022/05/09 13:45:40;;;;;;;7.30;3.00;;;;;;;;;;5028059;28;20178;-70
2022/05/09 13:48:07;;;;;;;8.52;3.60;;;;;;;;;;5028857;28;20231;-69
2022/05/09 13:50:39;;;;;;;6.78;4.18;;;;;;;;;;5031850;28;20537;-69
2022/05/09 13:53:17;;;;;;;5.78;3.85;;;;;;;;;;5021330;28;20201;-69
2022/05/09 13:55:43;;;;;;;7.43;3.90;;;;;;;;;;5031649;28;20308;-69
2022/05/09 13:58:11;;;;;;;7.18;4.18;;;;;;;;;;5030898;28;20178;-69
2022/05/09 14:00:40;;;;;;;7.45;4.40;;;;;;;;;;5027423;28;20543;-68
2022/05/09 14:03:11;;;;;;;8.95;4.63;;;;;;;;;;5030782;28;20648;-69
2022/05/09 14:05:38;;;;;;;4.88;4.22;;;;;;;;;;5030552;28;20252;-70
2022/05/09 14:08:04;;;;;;;6.45;4.03;;;;;;;;;;5025477;28;20178;-69
2022/05/09 14:10:41;;;;;;;8.35;4.95;;;;;;;;;;5031707;28;20675;-69
2022/05/09 14:13:26;;;;;;;5.72;4.05;;;;;;;;;;5028132;28;20201;-69
2022/05/09 14:15:53;;;;;;;7.28;4.35;;;;;;;;;;5031940;28;20182;-69
2022/05/09 14:18:19;;;;;;;10.90;4.72;;;;;;;;;;5030777;28;20174;-69
2022/05/09 14:20:44;;;;;;;10.07;4.80;;;;;;;;;;5031741;28;20758;-69
2022/05/09 14:23:13;;;;;;;5.27;3.90;;;;;;;;;;5031266;28;20565;-69
2022/05/09 14:31:21;;;;;;;6.60;4.07;;;;;;;;;;5026491;28;20326;-69
2022/05/09 14:33:47;;;;;;;8.27;4.45;;;;;;;;;;5029706;28;20174;-69
2022/05/09 14:36:34;;;;;;;8.27;4.38;;;;;;;;;;5031245;28;20204;-69
2022/05/09 14:39:00;;;;;;;12.55;5.47;;;;;;;;;;5030518;28;20182;-70
2022/05/09 14:41:44;;;;;;;7.50;4.07;;;;;;;;;;5027588;28;20256;-70
2022/05/09 14:44:10;;;;;;;8.55;4.68;;;;;;;;;;5028651;28;20178;-70
2022/05/09 14:46:52;;;;;;;9.23;5.18;;;;;;;;;;5031000;28;20634;-70
2022/05/09 14:49:18;;;;;;;10.98;5.20;;;;;;;;;;5025921;28;20174;-70
2022/05/09 14:51:54;;;;;;;9.07;5.07;;;;;;;;;;5025382;28;20683;-70
2022/05/09 14:54:20;;;;;;;8.40;5.20;;;;;;;;;;5027597;28;20201;-70
2022/05/09 14:59:46;;;;;;;8.10;4.93;;;;;;;;;;5048417;28;20445;-70
2022/05/09 15:02:18;;;;;;;6.90;5.35;;;;;;;;;;5033888;28;20263;-70
2022/05/09 15:04:44;;;;;;;7.95;5.10;;;;;;;;;;5034312;28;20182;-70